Time;durP1;ratioP1;P1;durP2;ratioP2;P2;SDS_P1;SDS_P2;PMS_P1;PMS_P2;Temp;Humidity;BMP_temperature;BMP_pressure;BME280_temperature;BME280_humidity;BME280_pressure;Samples;Min_cycle;Max_cycle;Signal;HPM_P1;HPM_P2
2022/09/05 00:01:55;;;;;;;3.03;2.10;;;;;;;;;;5061725;28;20043;-79
2022/09/05 00:04:33;;;;;;;3.80;2.15;;;;;;;;;;5064926;28;20067;-79
2022/09/05 00:07:06;;;;;;;2.13;1.58;;;;;;;;;;5053447;28;20039;-79
2022/09/05 00:09:37;;;;;;;2.67;1.50;;;;;;;;;;5060579;28;20336;-80
2022/09/05 00:12:05;;;;;;;2.22;1.80;;;;;;;;;;5062686;28;20494;-80
2022/09/05 00:14:37;;;;;;;4.50;1.88;;;;;;;;;;5062530;28;20033;-80
2022/09/05 00:17:20;;;;;;;4.25;2.10;;;;;;;;;;5058124;28;20033;-80
2022/09/05 00:19:56;;;;;;;2.17;1.77;;;;;;;;;;5063875;28;20051;-78
2022/09/05 00:22:36;;;;;;;3.03;1.67;;;;;;;;;;5064789;28;20530;-80
2022/09/05 00:25:14;;;;;;;3.10;1.95;;;;;;;;;;5063845;28;20082;-80
2022/09/05 00:27:55;;;;;;;8.38;2.30;;;;;;;;;;5060892;28;20025;-80
2022/09/05 00:30:21;;;;;;;3.90;2.17;;;;;;;;;;5062249;28;20043;-80
2022/09/05 00:32:57;;;;;;;2.72;1.73;;;;;;;;;;5060482;28;20286;-78
2022/09/05 00:35:42;;;;;;;2.50;1.73;;;;;;;;;;5058887;28;20033;-80
2022/09/05 00:38:25;;;;;;;4.10;2.20;;;;;;;;;;5056975;28;20048;-79
2022/09/05 00:40:55;;;;;;;3.30;1.75;;;;;;;;;;5054195;28;20470;-80
2022/09/05 00:43:47;;;;;;;3.50;2.05;;;;;;;;;;5059938;28;20059;-80
2022/09/05 00:46:15;;;;;;;4.30;2.35;;;;;;;;;;5055173;28;20041;-79
2022/09/05 00:48:56;;;;;;;4.30;2.13;;;;;;;;;;5061094;28;20519;-80
2022/09/05 00:51:30;;;;;;;4.43;1.98;;;;;;;;;;5058349;28;20103;-79
2022/09/05 00:54:15;;;;;;;3.28;1.90;;;;;;;;;;5057701;28;20024;-80
2022/09/05 00:56:46;;;;;;;2.92;1.75;;;;;;;;;;5054706;28;20052;-79
2022/09/05 00:59:34;;;;;;;2.63;1.98;;;;;;;;;;5058507;28;20033;-80
2022/09/05 01:02:19;;;;;;;4.57;2.22;;;;;;;;;;5059798;28;20063;-79
2022/09/05 01:05:01;;;;;;;4.22;2.38;;;;;;;;;;5057179;28;20103;-80
2022/09/05 01:07:37;;;;;;;2.53;1.75;;;;;;;;;;5058096;28;20036;-80
2022/09/05 01:10:19;;;;;;;4.85;2.10;;;;;;;;;;5063111;28;20044;-79
2022/09/05 01:12:45;;;;;;;4.95;2.00;;;;;;;;;;5060209;28;20534;-79
2022/09/05 01:15:34;;;;;;;3.20;1.90;;;;;;;;;;5059447;28;20025;-79
2022/09/05 01:18:13;;;;;;;3.40;1.88;;;;;;;;;;5056450;28;20035;-79
2022/09/05 01:20:54;;;;;;;2.78;1.80;;;;;;;;;;5059113;28;20035;-80
2022/09/05 01:23:20;;;;;;;;;;;;;;;;;;5058321;28;20035;-79
2022/09/05 01:25:59;;;;;;;2.70;1.92;;;;;;;;;;5051840;28;20376;-79
2022/09/05 01:28:40;;;;;;;2.50;1.85;;;;;;;;;;5012977;28;1084150;-79
2022/09/05 01:31:14;;;;;;;4.32;2.35;;;;;;;;;;5059867;28;20595;-79
2022/09/05 01:33:59;;;;;;;3.15;2.20;;;;;;;;;;5062043;28;20028;-80
2022/09/05 01:36:30;;;;;;;5.05;2.60;;;;;;;;;;5053448;28;20085;-80
2022/09/05 01:39:16;;;;;;;3.65;2.38;;;;;;;;;;5065440;28;20036;-79
2022/09/05 01:41:47;;;;;;;3.95;1.83;;;;;;;;;;5063300;28;20023;-80
2022/09/05 01:44:13;;;;;;;;;;;;;;;;;;5058609;28;20482;-79
2022/09/05 01:46:44;;;;;;;2.90;1.80;;;;;;;;;;5058977;28;19912;-79
2022/09/05 01:49:28;;;;;;;3.60;2.03;;;;;;;;;;5057939;28;20045;-79
2022/09/05 01:52:08;;;;;;;2.90;2.28;;;;;;;;;;5052629;28;20057;-79
2022/09/05 01:54:53;;;;;;;3.97;1.98;;;;;;;;;;5059832;28;20020;-78
2022/09/05 01:57:34;;;;;;;3.35;1.80;;;;;;;;;;5056282;28;20028;-79
2022/09/05 02:00:03;;;;;;;5.40;2.28;;;;;;;;;;5060288;28;20039;-79
2022/09/05 02:02:48;;;;;;;2.50;1.58;;;;;;;;;;5059653;28;20094;-79
2022/09/05 02:05:19;;;;;;;7.47;2.13;;;;;;;;;;5058025;28;20099;-79
2022/09/05 02:08:04;;;;;;;3.40;2.20;;;;;;;;;;5057499;28;20041;-79
2022/09/05 02:10:36;;;;;;;3.50;2.10;;;;;;;;;;5058031;28;20778;-79
2022/09/05 02:13:21;;;;;;;4.65;2.20;;;;;;;;;;5052431;28;20036;-79
2022/09/05 02:15:50;;;;;;;3.17;1.80;;;;;;;;;;5062357;28;20110;-79
2022/09/05 02:18:20;;;;;;;4.25;2.30;;;;;;;;;;5053981;28;20048;-80
2022/09/05 02:20:49;;;;;;;5.07;2.33;;;;;;;;;;5054568;28;20029;-79
2022/09/05 02:23:18;;;;;;;2.85;1.95;;;;;;;;;;5064866;28;20016;-79
2022/09/05 02:25:44;;;;;;;3.47;2.30;;;;;;;;;;5057660;28;20479;-79
2022/09/05 02:28:37;;;;;;;4.10;2.60;;;;;;;;;;5058999;28;20085;-79
2022/09/05 02:31:18;;;;;;;3.10;1.98;;;;;;;;;;5022373;28;20052;-79
2022/09/05 02:33:48;;;;;;;3.65;2.58;;;;;;;;;;5059561;28;20037;-78
2022/09/05 02:36:32;;;;;;;3.72;2.25;;;;;;;;;;5055155;28;20043;-79
2022/09/05 02:38:59;;;;;;;5.38;2.50;;;;;;;;;;5056557;28;20025;-79
2022/09/05 02:41:25;;;;;;;3.47;2.10;;;;;;;;;;5063737;28;20064;-80
2022/09/05 02:43:57;;;;;;;6.93;2.05;;;;;;;;;;5060427;28;20034;-79
2022/09/05 02:46:30;;;;;;;3.22;2.22;;;;;;;;;;5058715;28;20433;-79
2022/09/05 02:49:08;;;;;;;2.75;1.95;;;;;;;;;;5053399;28;20028;-79
2022/09/05 02:51:52;;;;;;;4.07;2.67;;;;;;;;;;5061508;28;20147;-80
2022/09/05 02:54:25;;;;;;;3.83;2.40;;;;;;;;;;5062478;28;20021;-80
2022/09/05 02:56:53;;;;;;;2.33;1.70;;;;;;;;;;5054813;28;20558;-79
2022/09/05 02:59:34;;;;;;;2.92;2.03;;;;;;;;;;5055757;28;20036;-79
2022/09/05 03:02:04;;;;;;;3.00;2.08;;;;;;;;;;5053468;28;20036;-79
2022/09/05 03:04:44;;;;;;;3.90;2.20;;;;;;;;;;5052892;28;20073;-77
2022/09/05 03:07:25;;;;;;;3.97;2.55;;;;;;;;;;5057366;28;20036;-79
2022/09/05 03:10:17;;;;;;;3.28;2.08;;;;;;;;;;5062521;28;20538;-78
2022/09/05 03:12:46;;;;;;;4.00;2.13;;;;;;;;;;5033141;28;20037;-76
2022/09/05 03:15:27;;;;;;;3.65;2.05;;;;;;;;;;5052164;28;20194;-77
2022/09/05 03:17:53;;;;;;;;;;;;;;;;;;5065615;28;20024;-76
2022/09/05 03:20:36;;;;;;;3.95;2.10;;;;;;;;;;5052980;28;19908;-77
2022/09/05 03:23:14;;;;;;;3.45;1.92;;;;;;;;;;5064515;28;20032;-79
2022/09/05 03:25:59;;;;;;;3.80;1.80;;;;;;;;;;5060765;28;20047;-80
2022/09/05 03:28:44;;;;;;;3.65;1.90;;;;;;;;;;5057669;28;20441;-81
2022/09/05 03:31:25;;;;;;;5.50;2.00;;;;;;;;;;5062490;28;20038;-80
2022/09/05 03:34:09;;;;;;;3.22;1.92;;;;;;;;;;5062066;28;20420;-80
2022/09/05 03:36:54;;;;;;;2.55;1.80;;;;;;;;;;5059505;28;20035;-80
2022/09/05 03:39:37;;;;;;;4.25;2.15;;;;;;;;;;5061750;28;20074;-82
2022/09/05 03:42:13;;;;;;;4.00;1.90;;;;;;;;;;5052935;28;20116;-81
2022/09/05 03:44:44;;;;;;;3.28;1.88;;;;;;;;;;5055079;28;20123;-80
2022/09/05 03:47:29;;;;;;;1.98;1.70;;;;;;;;;;5052064;28;20029;-80
2022/09/05 03:50:07;;;;;;;2.88;1.83;;;;;;;;;;5063634;28;20078;-81
2022/09/05 03:52:49;;;;;;;2.45;1.80;;;;;;;;;;5061475;28;20701;-80
2022/09/05 03:55:24;;;;;;;2.33;1.48;;;;;;;;;;5067639;28;20766;-80
2022/09/05 03:58:08;;;;;;;2.83;1.75;;;;;;;;;;5059627;28;20037;-80
2022/09/05 04:00:35;;;;;;;3.03;1.88;;;;;;;;;;5060164;28;20514;-80
2022/09/05 04:03:20;;;;;;;2.42;1.60;;;;;;;;;;5063682;28;20031;-80
2022/09/05 04:05:49;;;;;;;3.00;2.03;;;;;;;;;;5064658;28;20048;-80
2022/09/05 04:08:39;;;;;;;2.63;1.60;;;;;;;;;;5068624;28;20036;-80
2022/09/05 04:11:05;;;;;;;2.85;1.83;;;;;;;;;;5061844;28;20725;-80
2022/09/05 04:13:34;;;;;;;4.22;1.77;;;;;;;;;;5067459;28;20037;-80
2022/09/05 04:16:11;;;;;;;2.83;2.05;;;;;;;;;;5058545;28;20378;-80
2022/09/05 04:18:43;;;;;;;3.33;1.45;;;;;;;;;;5057283;28;20114;-81
2022/09/05 04:21:09;;;;;;;;;;;;;;;;;;5058155;28;20560;-80
2022/09/05 04:23:44;;;;;;;2.53;1.50;;;;;;;;;;5051657;28;19909;-80
2022/09/05 04:26:34;;;;;;;2.55;1.67;;;;;;;;;;5062890;28;20040;-80
2022/09/05 04:29:03;;;;;;;2.03;1.67;;;;;;;;;;5067528;28;20045;-80
2022/09/05 04:31:48;;;;;;;1.73;1.60;;;;;;;;;;5057358;28;20036;-80
2022/09/05 04:34:26;;;;;;;2.88;1.60;;;;;;;;;;5067669;28;20050;-80
2022/09/05 04:36:59;;;;;;;2.47;1.55;;;;;;;;;;5062269;28;20436;-80
2022/09/05 04:39:26;;;;;;;2.15;1.40;;;;;;;;;;5053934;28;20028;-80
2022/09/05 04:41:55;;;;;;;2.03;1.55;;;;;;;;;;5060997;28;20490;-79
2022/09/05 04:44:29;;;;;;;2.63;1.80;;;;;;;;;;5063644;28;20031;-80
2022/09/05 04:46:56;;;;;;;2.78;1.77;;;;;;;;;;5059216;28;20488;-80
2022/09/05 04:49:26;;;;;;;4.47;1.30;;;;;;;;;;5054311;28;20024;-80
2022/09/05 04:52:10;;;;;;;2.80;1.63;;;;;;;;;;5061285;28;20031;-79
2022/09/05 04:54:41;;;;;;;1.80;1.50;;;;;;;;;;5062993;28;20029;-80
2022/09/05 04:57:07;;;;;;;5.88;1.70;;;;;;;;;;5066447;28;20037;-79
2022/09/05 04:59:40;;;;;;;2.38;1.42;;;;;;;;;;5056054;28;20017;-79
2022/09/05 05:02:16;;;;;;;2.70;1.63;;;;;;;;;;5052470;28;20539;-79
2022/09/05 05:04:42;;;;;;;1.80;1.42;;;;;;;;;;5061116;28;20055;-79
2022/09/05 05:07:27;;;;;;;2.00;1.42;;;;;;;;;;5061555;28;20066;-79
2022/09/05 05:09:58;;;;;;;1.67;1.33;;;;;;;;;;5056776;28;20557;-79
2022/09/05 05:12:41;;;;;;;5.60;2.28;;;;;;;;;;5049013;28;20025;-80
2022/09/05 05:15:12;;;;;;;1.73;1.42;;;;;;;;;;5052653;28;20111;-79
2022/09/05 05:17:51;;;;;;;2.13;1.50;;;;;;;;;;5062838;28;20106;-77
2022/09/05 05:20:30;;;;;;;2.50;1.42;;;;;;;;;;5061128;28;20438;-77
2022/09/05 05:23:16;;;;;;;1.50;1.20;;;;;;;;;;5061912;28;20035;-80
2022/09/05 05:25:45;;;;;;;1.83;1.20;;;;;;;;;;5063747;28;20021;-81
2022/09/05 05:28:34;;;;;;;1.75;1.50;;;;;;;;;;5055770;28;20513;-80
2022/09/05 05:31:08;;;;;;;2.45;1.30;;;;;;;;;;5048295;28;20040;-80
2022/09/05 05:33:37;;;;;;;2.17;1.45;;;;;;;;;;5064262;28;20032;-79
2022/09/05 05:36:04;;;;;;;2.00;1.63;;;;;;;;;;5061371;28;20069;-79
2022/09/05 05:38:34;;;;;;;1.83;1.33;;;;;;;;;;5060239;28;20025;-81
2022/09/05 05:41:05;;;;;;;2.13;1.17;;;;;;;;;;5058540;28;20036;-79
2022/09/05 05:43:35;;;;;;;3.03;1.55;;;;;;;;;;5051694;28;20044;-79
2022/09/05 05:46:01;;;;;;;1.15;1.05;;;;;;;;;;5057633;28;20029;-80
2022/09/05 05:48:38;;;;;;;2.70;1.65;;;;;;;;;;5059197;28;20568;-84
2022/09/05 05:51:13;;;;;;;2.13;1.50;;;;;;;;;;5058921;28;20105;-81
2022/09/05 05:53:39;;;;;;;1.65;1.42;;;;;;;;;;5050460;28;20591;-83
2022/09/05 05:56:24;;;;;;;2.65;1.52;;;;;;;;;;5064022;28;20025;-79
2022/09/05 05:59:02;;;;;;;1.38;1.23;;;;;;;;;;5059984;28;20028;-80
2022/09/05 06:01:28;;;;;;;1.70;1.38;;;;;;;;;;5058281;28;20037;-80
2022/09/05 06:04:10;;;;;;;3.50;2.17;;;;;;;;;;5051323;28;20094;-76
2022/09/05 06:07:01;;;;;;;1.88;1.60;;;;;;;;;;5065386;28;20483;-88
2022/09/05 06:09:42;;;;;;;1.55;1.45;;;;;;;;;;5050456;28;20472;-82
2022/09/05 06:12:27;;;;;;;3.10;1.50;;;;;;;;;;5056643;28;20035;-81
2022/09/05 06:15:11;;;;;;;2.75;1.45;;;;;;;;;;5054464;28;20108;-82
2022/09/05 06:17:49;;;;;;;3.35;1.60;;;;;;;;;;5050496;28;20030;-78
2022/09/05 06:20:15;;;;;;;1.80;1.55;;;;;;;;;;5060849;28;20040;-78
2022/09/05 06:23:09;;;;;;;3.22;1.63;;;;;;;;;;5062514;28;20925;-77
2022/09/05 06:25:41;;;;;;;4.68;2.08;;;;;;;;;;5056406;28;20029;-76
2022/09/05 06:28:07;;;;;;;1.58;1.27;;;;;;;;;;5052231;28;21757;-77
2022/09/05 06:30:56;;;;;;;1.40;1.20;;;;;;;;;;5051479;28;20048;-77
2022/09/05 06:33:41;;;;;;;2.47;1.50;;;;;;;;;;5049029;28;20036;-79
2022/09/05 06:36:17;;;;;;;3.72;2.28;;;;;;;;;;5058839;28;20026;-75
2022/09/05 06:38:52;;;;;;;3.95;1.67;;;;;;;;;;5058104;28;20021;-78
2022/09/05 06:41:24;;;;;;;2.13;1.42;;;;;;;;;;5058156;28;20111;-73
2022/09/05 06:44:14;;;;;;;1.58;1.38;;;;;;;;;;5064031;28;20024;-75
2022/09/05 06:46:41;;;;;;;2.15;1.45;;;;;;;;;;5049182;28;20483;-75
2022/09/05 06:49:27;;;;;;;2.45;1.50;;;;;;;;;;5057406;28;20352;-73
2022/09/05 06:52:12;;;;;;;2.35;1.63;;;;;;;;;;5060456;28;20035;-74
2022/09/05 06:54:56;;;;;;;1.90;1.50;;;;;;;;;;5068141;28;20042;-74
2022/09/05 06:57:29;;;;;;;2.80;1.65;;;;;;;;;;5062974;28;20066;-77
2022/09/05 07:00:04;;;;;;;1.85;1.60;;;;;;;;;;5067889;28;20100;-79
2022/09/05 07:02:33;;;;;;;1.67;1.27;;;;;;;;;;5064476;28;20482;-74
2022/09/05 07:05:11;;;;;;;2.28;1.60;;;;;;;;;;5067094;28;20431;-74
2022/09/05 07:07:47;;;;;;;4.68;1.80;;;;;;;;;;5069011;28;20109;-74
2022/09/05 07:10:28;;;;;;;3.15;1.45;;;;;;;;;;5064916;28;20099;-74
2022/09/05 07:13:05;;;;;;;2.23;1.57;;;;;;;;;;5059946;28;20020;-74
2022/09/05 07:15:38;;;;;;;1.38;1.27;;;;;;;;;;5063153;28;20093;-74
2022/09/05 07:18:12;;;;;;;1.80;1.40;;;;;;;;;;5061416;28;20418;-72
2022/09/05 07:20:48;;;;;;;1.60;1.30;;;;;;;;;;5056978;28;20056;-73
2022/09/05 07:23:21;;;;;;;2.28;1.98;;;;;;;;;;5056290;28;20024;-74
2022/09/05 07:25:49;;;;;;;2.28;1.65;;;;;;;;;;5064882;28;20116;-73
2022/09/05 07:28:16;;;;;;;1.85;1.52;;;;;;;;;;5062102;28;20848;-73
2022/09/05 07:30:47;;;;;;;3.70;2.13;;;;;;;;;;5060110;28;20134;-73
2022/09/05 07:33:18;;;;;;;2.80;1.75;;;;;;;;;;5063178;28;20035;-72
2022/09/05 07:35:44;;;;;;;1.50;1.40;;;;;;;;;;5059456;28;20376;-73
2022/09/05 07:38:27;;;;;;;23.38;3.53;;;;;;;;;;5066094;28;20105;-75
2022/09/05 07:40:57;;;;;;;2.53;1.70;;;;;;;;;;5065220;28;20518;-74
2022/09/05 07:43:34;;;;;;;3.72;2.55;;;;;;;;;;5062454;28;20054;-74
2022/09/05 07:46:33;;;;;;;2.75;2.05;;;;;;;;;;5059812;28;20036;-74
2022/09/05 07:49:02;;;;;;;4.53;2.28;;;;;;;;;;5021846;28;20045;-73
2022/09/05 07:51:30;;;;;;;4.82;2.10;;;;;;;;;;5060685;28;20037;-79
2022/09/05 07:53:58;;;;;;;2.13;1.63;;;;;;;;;;5063509;28;20032;-84
2022/09/05 07:56:44;;;;;;;2.35;1.60;;;;;;;;;;5055711;28;20266;-77
2022/09/05 07:59:11;;;;;;;4.05;2.58;;;;;;;;;;5058930;28;20056;-79
2022/09/05 08:01:40;;;;;;;3.67;2.58;;;;;;;;;;5059401;28;20037;-87
2022/09/05 08:04:06;;;;;;;11.00;4.05;;;;;;;;;;5062111;28;20630;-82
2022/09/05 08:06:32;;;;;;;2.17;1.77;;;;;;;;;;5063273;28;20036;-83
2022/09/05 08:09:16;;;;;;;2.95;2.15;;;;;;;;;;5059945;28;20041;-82
2022/09/05 08:11:42;;;;;;;4.45;1.77;;;;;;;;;;5040122;28;20482;-82
2022/09/05 08:14:16;;;;;;;5.20;2.42;;;;;;;;;;5059625;28;20075;-85
2022/09/05 08:16:42;;;;;;;6.35;3.45;;;;;;;;;;5064000;28;20021;-86
2022/09/05 08:19:30;;;;;;;3.15;2.35;;;;;;;;;;5058257;28;20062;-87
2022/09/05 08:21:57;;;;;;;2.50;1.55;;;;;;;;;;5053893;28;20021;-84
2022/09/05 08:24:26;;;;;;;9.57;3.17;;;;;;;;;;5059866;28;20073;-82
2022/09/05 08:27:00;;;;;;;6.95;1.88;;;;;;;;;;5060241;28;20055;-81
2022/09/05 08:29:51;;;;;;;3.97;2.38;;;;;;;;;;5061968;28;20103;-83
2022/09/05 08:32:22;;;;;;;5.47;2.30;;;;;;;;;;5062333;28;20064;-77
2022/09/05 08:34:54;;;;;;;3.53;2.47;;;;;;;;;;5061511;28;20193;-81
2022/09/05 08:37:21;;;;;;;1.95;1.50;;;;;;;;;;5059872;28;20091;-79
2022/09/05 08:39:52;;;;;;;4.95;2.35;;;;;;;;;;5058779;28;20030;-77
2022/09/05 08:42:46;;;;;;;2.15;1.80;;;;;;;;;;5059215;28;20131;-78
2022/09/05 08:45:24;;;;;;;7.53;2.90;;;;;;;;;;5057007;28;20032;-78
2022/09/05 08:47:54;;;;;;;6.68;2.28;;;;;;;;;;5063134;28;20041;-79
2022/09/05 08:50:35;;;;;;;4.97;2.92;;;;;;;;;;5057370;28;20112;-78
2022/09/05 08:53:08;;;;;;;5.88;2.30;;;;;;;;;;5065943;28;20060;-81
2022/09/05 08:55:47;;;;;;;7.60;3.40;;;;;;;;;;5059087;28;20029;-78
2022/09/05 08:58:36;;;;;;;13.40;3.13;;;;;;;;;;5064032;28;20039;-81
2022/09/05 09:01:12;;;;;;;3.65;2.30;;;;;;;;;;5046209;28;20155;-78
2022/09/05 09:04:05;;;;;;;4.65;1.75;;;;;;;;;;5063058;28;20465;-79
2022/09/05 09:06:42;;;;;;;11.57;2.60;;;;;;;;;;5056007;28;20033;-78
2022/09/05 09:09:26;;;;;;;23.75;4.63;;;;;;;;;;5064096;28;20028;-79
2022/09/05 09:12:18;;;;;;;6.00;2.38;;;;;;;;;;5067583;28;20035;-76
2022/09/05 09:14:53;;;;;;;2.55;2.00;;;;;;;;;;5027160;28;20064;-76
2022/09/05 09:17:36;;;;;;;10.20;2.45;;;;;;;;;;5062771;28;20020;-78
2022/09/05 09:20:21;;;;;;;17.02;4.53;;;;;;;;;;5059766;28;20523;-77
2022/09/05 09:22:54;;;;;;;14.98;3.28;;;;;;;;;;5061152;28;20436;-77
2022/09/05 09:25:23;;;;;;;4.18;2.65;;;;;;;;;;5065766;28;20025;-77
2022/09/05 09:28:07;;;;;;;8.15;3.10;;;;;;;;;;5061122;28;20031;-78
2022/09/05 09:30:35;;;;;;;7.68;2.78;;;;;;;;;;5064432;28;20059;-80
2022/09/05 09:33:05;;;;;;;3.55;2.30;;;;;;;;;;5060532;28;20092;-78
2022/09/05 09:35:44;;;;;;;3.05;2.03;;;;;;;;;;5058966;28;20031;-77
2022/09/05 09:38:34;;;;;;;3.03;2.13;;;;;;;;;;5054161;28;20479;-81
2022/09/05 09:41:25;;;;;;;1.98;1.70;;;;;;;;;;5053685;28;20025;-75
2022/09/05 09:43:51;;;;;;;;;;;;;;;;;;5057405;28;20094;-75
2022/09/05 09:46:21;;;;;;;2.40;2.08;;;;;;;;;;5061724;28;20410;-74
2022/09/05 09:48:56;;;;;;;4.50;2.10;;;;;;;;;;5065575;28;20158;-75
2022/09/05 09:51:39;;;;;;;4.32;2.17;;;;;;;;;;5058623;28;20040;-75
2022/09/05 09:54:24;;;;;;;3.33;1.92;;;;;;;;;;5063477;28;20031;-75
2022/09/05 09:57:18;;;;;;;2.85;2.10;;;;;;;;;;5064266;28;20035;-76
2022/09/05 10:00:01;;;;;;;2.20;1.63;;;;;;;;;;5060820;28;20118;-73
2022/09/05 10:02:32;;;;;;;2.58;1.70;;;;;;;;;;5056723;28;20025;-73
2022/09/05 10:05:01;;;;;;;2.60;1.90;;;;;;;;;;5062617;28;20077;-71
2022/09/05 10:07:36;;;;;;;3.42;2.00;;;;;;;;;;5064883;28;20044;-73
2022/09/05 10:10:20;;;;;;;2.20;1.65;;;;;;;;;;5063758;28;20267;-72
2022/09/05 10:13:05;;;;;;;2.72;1.77;;;;;;;;;;5054187;28;20036;-75
2022/09/05 10:15:43;;;;;;;2.28;1.60;;;;;;;;;;5062301;28;20032;-73
2022/09/05 10:18:24;;;;;;;2.60;1.90;;;;;;;;;;5057767;28;20510;-74
2022/09/05 10:21:00;;;;;;;1.27;1.15;;;;;;;;;;5060717;28;20151;-74
2022/09/05 10:23:45;;;;;;;2.53;2.00;;;;;;;;;;5063171;28;20420;-78
2022/09/05 10:26:29;;;;;;;1.70;1.52;;;;;;;;;;5061751;28;20155;-71
2022/09/05 10:28:55;;;;;;;2.10;1.63;;;;;;;;;;5060245;28;20045;-74
2022/09/05 10:31:30;;;;;;;2.58;1.80;;;;;;;;;;5059034;28;20020;-73
2022/09/05 10:34:18;;;;;;;3.60;1.90;;;;;;;;;;5064075;28;20066;-73
2022/09/05 10:37:01;;;;;;;1.80;1.55;;;;;;;;;;5061706;28;20466;-73
2022/09/05 10:39:43;;;;;;;2.35;1.70;;;;;;;;;;5058032;28;20430;-74
2022/09/05 10:42:14;;;;;;;3.55;2.00;;;;;;;;;;5056489;28;20678;-72
2022/09/05 10:44:45;;;;;;;2.72;1.90;;;;;;;;;;5059592;28;20668;-73
2022/09/05 10:47:11;;;;;;;;;;;;;;;;;;5060980;28;20063;-73
2022/09/05 10:49:42;;;;;;;2.63;2.20;;;;;;;;;;5058253;28;20322;-73
2022/09/05 10:52:10;;;;;;;3.90;2.20;;;;;;;;;;5066861;28;20495;-72
2022/09/05 10:54:55;;;;;;;1.83;1.60;;;;;;;;;;5060885;28;20041;-72
2022/09/05 10:57:36;;;;;;;3.92;2.10;;;;;;;;;;5062186;28;20497;-73
2022/09/05 11:00:02;;;;;;;;;;;;;;;;;;5062175;28;20472;-73
2022/09/05 11:02:29;;;;;;;2.50;2.00;;;;;;;;;;5055944;28;19912;-73
2022/09/05 11:05:14;;;;;;;2.00;1.73;;;;;;;;;;5057714;28;20062;-74
2022/09/05 11:07:47;;;;;;;1.85;1.50;;;;;;;;;;5057976;28;20387;-73
2022/09/05 11:10:32;;;;;;;18.30;3.80;;;;;;;;;;5060653;28;20024;-74
2022/09/05 11:13:23;;;;;;;3.90;1.90;;;;;;;;;;5058941;28;20398;-74
2022/09/05 11:15:56;;;;;;;4.57;2.20;;;;;;;;;;5044875;28;20040;-74
2022/09/05 11:18:33;;;;;;;2.42;1.77;;;;;;;;;;5051074;28;20082;-74
2022/09/05 11:21:07;;;;;;;4.95;1.92;;;;;;;;;;5050691;28;20025;-74
2022/09/05 11:23:42;;;;;;;5.47;2.03;;;;;;;;;;5058898;28;20439;-74
2022/09/05 11:26:24;;;;;;;2.47;1.88;;;;;;;;;;5062373;28;20025;-75
2022/09/05 11:29:05;;;;;;;1.90;1.70;;;;;;;;;;5063482;28;20037;-75
2022/09/05 11:31:52;;;;;;;4.82;2.05;;;;;;;;;;5057744;28;20504;-73
2022/09/05 11:34:28;;;;;;;3.45;1.73;;;;;;;;;;5054118;28;20047;-74
2022/09/05 11:36:57;;;;;;;1.88;1.63;;;;;;;;;;5055580;28;20533;-74
2022/09/05 11:39:39;;;;;;;2.38;1.90;;;;;;;;;;5054007;28;20475;-73
2022/09/05 11:42:15;;;;;;;3.17;1.92;;;;;;;;;;5050303;28;20562;-73
2022/09/05 11:45:05;;;;;;;1.48;1.38;;;;;;;;;;5050450;28;20024;-74
2022/09/05 11:47:50;;;;;;;1.90;1.60;;;;;;;;;;5063760;28;20048;-74
2022/09/05 11:50:16;;;;;;;2.08;1.60;;;;;;;;;;5066993;28;20029;-73
2022/09/05 11:52:54;;;;;;;2.00;1.80;;;;;;;;;;5050013;28;20037;-75
2022/09/05 11:55:33;;;;;;;2.47;1.83;;;;;;;;;;5056332;28;20032;-74
2022/09/05 11:58:02;;;;;;;2.47;1.67;;;;;;;;;;5050166;28;20035;-73
2022/09/05 12:00:39;;;;;;;2.20;2.00;;;;;;;;;;5060238;28;20424;-73
2022/09/05 12:03:25;;;;;;;1.60;1.50;;;;;;;;;;5057832;28;20506;-74
2022/09/05 12:06:03;;;;;;;2.10;1.70;;;;;;;;;;5063731;28;20443;-81
2022/09/05 12:08:30;;;;;;;2.33;2.08;;;;;;;;;;5058147;28;20032;-81
2022/09/05 12:11:16;;;;;;;1.52;1.42;;;;;;;;;;5054599;28;20099;-75
2022/09/05 12:13:46;;;;;;;2.47;1.67;;;;;;;;;;5058614;28;20700;-77
2022/09/05 12:16:31;;;;;;;2.78;1.70;;;;;;;;;;5067127;28;20024;-81
2022/09/05 12:19:06;;;;;;;2.53;1.60;;;;;;;;;;5054014;28;20032;-77
2022/09/05 12:21:37;;;;;;;1.95;1.70;;;;;;;;;;5055805;28;20194;-77
2022/09/05 12:24:13;;;;;;;2.75;2.10;;;;;;;;;;5051947;28;20055;-76
2022/09/05 12:26:43;;;;;;;2.42;2.03;;;;;;;;;;5058460;28;20395;-77
2022/09/05 12:29:11;;;;;;;2.13;1.63;;;;;;;;;;5064682;28;20043;-77
2022/09/05 12:31:39;;;;;;;1.80;1.58;;;;;;;;;;5055248;28;20052;-81
2022/09/05 12:34:11;;;;;;;2.53;1.58;;;;;;;;;;5058081;28;20574;-79
2022/09/05 12:36:46;;;;;;;2.75;1.95;;;;;;;;;;5051648;28;20111;-79
2022/09/05 12:39:12;;;;;;;3.30;2.00;;;;;;;;;;5065307;28;20037;-79
2022/09/05 12:41:42;;;;;;;5.50;2.20;;;;;;;;;;5064795;28;20020;-78
2022/09/05 12:44:21;;;;;;;1.80;1.67;;;;;;;;;;5060193;28;20025;-82
2022/09/05 12:46:49;;;;;;;1.92;1.60;;;;;;;;;;5052094;28;20391;-80
2022/09/05 12:49:30;;;;;;;2.80;1.98;;;;;;;;;;5055368;28;20025;-81
2022/09/05 12:52:04;;;;;;;2.10;1.60;;;;;;;;;;5052873;28;20486;-83
2022/09/05 12:54:50;;;;;;;2.33;1.95;;;;;;;;;;5056878;28;20175;-78
2022/09/05 12:57:27;;;;;;;2.30;2.00;;;;;;;;;;5017378;28;20032;-83
2022/09/05 12:59:56;;;;;;;2.38;1.98;;;;;;;;;;5067774;28;20076;-79
2022/09/05 13:02:25;;;;;;;2.88;2.10;;;;;;;;;;5058975;28;20032;-81
2022/09/05 13:04:56;;;;;;;3.03;2.10;;;;;;;;;;5056828;28;20111;-79
2022/09/05 13:07:22;;;;;;;;;;;;;;;;;;5055119;28;20488;-84
2022/09/05 13:09:55;;;;;;;2.08;1.88;;;;;;;;;;5059469;28;19950;-80
2022/09/05 13:12:28;;;;;;;2.63;2.10;;;;;;;;;;5058602;28;20024;-84
2022/09/05 13:15:04;;;;;;;3.75;2.28;;;;;;;;;;5054363;28;20070;-80
2022/09/05 13:17:37;;;;;;;2.63;2.05;;;;;;;;;;5061840;28;20495;-78
2022/09/05 13:20:07;;;;;;;2.67;1.90;;;;;;;;;;5062887;28;20058;-73
2022/09/05 13:22:37;;;;;;;6.93;2.47;;;;;;;;;;5053359;28;20033;-72
2022/09/05 13:25:09;;;;;;;3.10;2.30;;;;;;;;;;5049985;28;20024;-73
2022/09/05 13:27:45;;;;;;;3.78;2.58;;;;;;;;;;5058239;28;20104;-72
2022/09/05 13:30:14;;;;;;;2.28;2.08;;;;;;;;;;5053394;28;20040;-74
2022/09/05 13:32:43;;;;;;;2.50;2.30;;;;;;;;;;5062493;28;20032;-73
2022/09/05 13:35:20;;;;;;;3.75;2.88;;;;;;;;;;5061791;28;20035;-72
2022/09/05 13:37:59;;;;;;;2.42;2.20;;;;;;;;;;5055387;28;20384;-72
2022/09/05 13:40:46;;;;;;;3.08;2.40;;;;;;;;;;5056875;28;20033;-72
2022/09/05 13:45:38;;;;;;;2.40;2.20;;;;;;;;;;5080584;27;20373;-73
2022/09/05 13:48:36;;;;;;;2.55;2.25;;;;;;;;;;5072916;28;20024;-73
2022/09/05 13:51:26;;;;;;;2.30;2.10;;;;;;;;;;5054553;28;20644;-77
2022/09/05 13:54:13;;;;;;;3.60;2.38;;;;;;;;;;5063181;28;20075;-77
2022/09/05 13:56:44;;;;;;;2.20;2.00;;;;;;;;;;5065419;28;20033;-77
2022/09/05 13:59:12;;;;;;;2.47;2.13;;;;;;;;;;5062482;28;20569;-77
2022/09/05 14:04:10;;;;;;;1.98;1.83;;;;;;;;;;5042336;28;20802;-77
2022/09/05 14:06:55;;;;;;;2.10;1.90;;;;;;;;;;5044683;28;20107;-78
2022/09/05 14:09:21;;;;;;;2.00;1.80;;;;;;;;;;5041134;28;20431;-74
2022/09/05 14:12:05;;;;;;;2.78;1.90;;;;;;;;;;5045042;28;20033;-75
2022/09/05 14:14:34;;;;;;;2.38;2.17;;;;;;;;;;5042326;28;20025;-78
2022/09/05 14:17:10;;;;;;;2.75;2.20;;;;;;;;;;5042512;28;20468;-81
2022/09/05 14:22:32;;;;;;;3.97;1.90;;;;;;;;;;5044619;28;20084;-79
2022/09/05 14:24:59;;;;;;;2.67;2.08;;;;;;;;;;5037514;28;20025;-80
2022/09/05 14:27:25;;;;;;;3.80;2.10;;;;;;;;;;5038069;28;20474;-79
2022/09/05 14:29:52;;;;;;;2.72;2.05;;;;;;;;;;5028427;28;20059;-81
2022/09/05 14:32:18;;;;;;;2.28;1.80;;;;;;;;;;5033253;28;20036;-82
2022/09/05 14:35:06;;;;;;;5.10;2.20;;;44.20;27.80;;;;;;5034338;28;20037;-83
2022/09/05 14:38:08;;;;;;;2.13;1.92;;;44.90;27.60;;;;;;5033544;28;20065;-80
2022/09/05 14:41:17;;;;;;;2.35;2.15;;;44.70;27.40;;;;;;5042729;28;20029;-80
2022/09/05 14:43:43;;;;;;;2.20;2.00;;;;;;;;;;5041871;28;20116;-80
2022/09/05 14:46:32;;;;;;;2.00;1.90;;;39.80;30.40;;;;;;5041032;28;20167;-81
2022/09/05 14:49:16;;;;;;;3.92;2.55;;;39.50;30.70;;;;;;5040991;28;20032;-78
2022/09/05 14:51:45;;;;;;;5.65;2.45;;;35.20;35.10;;;;;;5040621;28;20369;-79
2022/09/05 14:54:22;;;;;;;3.70;2.40;;;31.50;40.50;;;;;;5036791;28;20029;-76
2022/09/05 14:56:53;;;;;;;4.72;2.30;;;31.40;41.30;;;;;;5036186;28;20044;-78
2022/09/05 14:59:31;;;;;;;2.13;1.92;;;33.80;39.10;;;;;;5030804;28;20091;-78
2022/09/05 15:02:09;;;;;;;3.00;2.00;;;35.40;36.80;;;;;;5030786;28;20049;-74
2022/09/05 15:04:42;;;;;;;1.98;1.83;;;37.80;33.90;;;;;;5041261;28;20028;-74
2022/09/05 15:07:17;;;;;;;2.40;2.05;;;39.40;32.10;;;;;;5032776;28;20094;-72
2022/09/05 15:09:43;;;;;;;2.95;2.20;;;40.50;30.30;;;;;;5032217;28;20041;-72
2022/09/05 15:12:17;;;;;;;2.65;2.45;;;41.60;30.00;;;;;;5040753;28;20096;-72
2022/09/05 15:14:54;;;;;;;4.75;1.80;;;42.50;28.80;;;;;;5032646;28;20030;-73
2022/09/05 15:17:25;;;;;;;2.35;2.00;;;39.70;30.40;;;;;;5018842;28;20930;-72
2022/09/05 15:19:58;;;;;;;2.20;2.00;;;39.30;31.90;;;;;;5020006;28;20498;-72
2022/09/05 15:22:38;;;;;;;2.58;2.00;;;39.30;31.40;;;;;;5023208;28;20477;-72
2022/09/05 15:25:15;;;;;;;1.80;1.63;;;;;;;;;;5017956;28;20030;-72
2022/09/05 15:27:41;;;;;;;2.40;2.00;;;;;;;;;;5024258;28;20551;-72
2022/09/05 15:30:07;;;;;;;2.22;2.00;;;;;;;;;;5020184;28;20044;-72
2022/09/05 15:32:37;;;;;;;2.47;1.80;;;;;;;;;;5022335;28;20104;-72
2022/09/05 15:35:04;;;;;;;1.75;1.65;;;;;;;;;;5017241;28;20034;-74
2022/09/05 15:37:39;;;;;;;2.38;1.80;;;;;;;;;;5025528;28;20026;-72
2022/09/05 15:40:07;;;;;;;2.08;1.75;;;;;;;;;;5029612;28;20074;-73